sensor_id;sensor_type;location;lat;lon;timestamp;pressure;altitude;pressure_sealevel;temperature;humidity
12757;BME280;31601;48.042;12.240;2022-07-06T00:01:06;96627.66;;;18.79;64.52
12757;BME280;31601;48.042;12.240;2022-07-06T00:03:33;96627.78;;;18.54;65.12
12757;BME280;31601;48.042;12.240;2022-07-06T00:06:01;96633.63;;;18.63;64.57
12757;BME280;31601;48.042;12.240;2022-07-06T00:08:27;96623.72;;;18.52;64.63
12757;BME280;31601;48.042;12.240;2022-07-06T00:10:53;96626.31;;;18.58;64.45
12757;BME280;31601;48.042;12.240;2022-07-06T00:13:20;96619.72;;;18.61;64.60
12757;BME280;31601;48.042;12.240;2022-07-06T00:15:46;96627.47;;;18.63;64.81
12757;BME280;31601;48.042;12.240;2022-07-06T00:18:13;96635.38;;;18.69;64.79
12757;BME280;31601;48.042;12.240;2022-07-06T00:20:39;96633.16;;;18.66;65.03
12757;BME280;31601;48.042;12.240;2022-07-06T00:23:07;96632.38;;;18.77;64.82
12757;BME280;31601;48.042;12.240;2022-07-06T00:25:34;96628.25;;;18.82;64.71
12757;BME280;31601;48.042;12.240;2022-07-06T00:28:00;96633.00;;;18.61;65.29
12757;BME280;31601;48.042;12.240;2022-07-06T00:30:27;96631.94;;;18.81;64.63
12757;BME280;31601;48.042;12.240;2022-07-06T00:32:53;96634.75;;;18.86;64.81
12757;BME280;31601;48.042;12.240;2022-07-06T00:35:20;96636.91;;;18.77;64.90
12757;BME280;31601;48.042;12.240;2022-07-06T00:37:46;96633.94;;;18.85;65.15
12757;BME280;31601;48.042;12.240;2022-07-06T00:40:14;96625.97;;;18.85;64.84
12757;BME280;31601;48.042;12.240;2022-07-06T00:42:40;96631.22;;;18.73;65.44
12757;BME280;31601;48.042;12.240;2022-07-06T00:45:08;96628.25;;;18.82;64.95
12757;BME280;31601;48.042;12.240;2022-07-06T00:47:34;96628.25;;;18.82;65.04
12757;BME280;31601;48.042;12.240;2022-07-06T00:50:01;96633.66;;;18.75;65.08
12757;BME280;31601;48.042;12.240;2022-07-06T00:52:44;96634.31;;;18.70;64.89
12757;BME280;31601;48.042;12.240;2022-07-06T00:55:13;96631.31;;;18.67;64.96
12757;BME280;31601;48.042;12.240;2022-07-06T00:57:41;96632.00;;;18.62;65.14
12757;BME280;31601;48.042;12.240;2022-07-06T01:00:10;96633.56;;;18.51;65.31
12757;BME280;31601;48.042;12.240;2022-07-06T01:02:37;96638.88;;;18.51;65.28
12757;BME280;31601;48.042;12.240;2022-07-06T01:05:05;96637.25;;;18.50;65.35
12757;BME280;31601;48.042;12.240;2022-07-06T01:07:33;96626.84;;;18.49;65.52
12757;BME280;31601;48.042;12.240;2022-07-06T01:09:59;96620.59;;;18.43;65.85
12757;BME280;31601;48.042;12.240;2022-07-06T01:12:27;96627.66;;;18.49;65.76
12757;BME280;31601;48.042;12.240;2022-07-06T01:14:54;96623.72;;;18.52;65.71
12757;BME280;31601;48.042;12.240;2022-07-06T01:17:21;96621.22;;;18.57;65.49
12757;BME280;31601;48.042;12.240;2022-07-06T01:19:47;96619.94;;;18.59;65.22
12757;BME280;31601;48.042;12.240;2022-07-06T01:22:15;96617.69;;;18.63;65.05
12757;BME280;31601;48.042;12.240;2022-07-06T01:24:42;96608.66;;;18.64;64.87
12757;BME280;31601;48.042;12.240;2022-07-06T01:27:08;96606.66;;;18.59;65.10
12757;BME280;31601;48.042;12.240;2022-07-06T01:29:34;96606.19;;;18.51;65.32
12757;BME280;31601;48.042;12.240;2022-07-06T01:32:01;96606.66;;;18.59;65.16
12757;BME280;31601;48.042;12.240;2022-07-06T01:34:27;96610.63;;;18.69;64.99
12757;BME280;31601;48.042;12.240;2022-07-06T01:36:54;96612.03;;;18.71;65.05
12757;BME280;31601;48.042;12.240;2022-07-06T01:39:22;96601.75;;;18.75;64.70
12757;BME280;31601;48.042;12.240;2022-07-06T01:41:48;96597.38;;;18.81;64.72
12757;BME280;31601;48.042;12.240;2022-07-06T01:44:15;96602.69;;;18.81;64.65
12757;BME280;31601;48.042;12.240;2022-07-06T01:46:41;96609.66;;;18.82;64.33
12757;BME280;31601;48.042;12.240;2022-07-06T01:49:08;96611.13;;;18.77;64.69
12757;BME280;31601;48.042;12.240;2022-07-06T01:51:34;96624.53;;;18.83;64.45
12757;BME280;31601;48.042;12.240;2022-07-06T01:54:01;96607.06;;;18.75;64.45
12757;BME280;31601;48.042;12.240;2022-07-06T01:56:28;96612.31;;;18.82;64.64
12757;BME280;31601;48.042;12.240;2022-07-06T01:58:55;96606.56;;;18.85;64.61
12757;BME280;31601;48.042;12.240;2022-07-06T02:01:22;96614.31;;;18.86;64.69
12757;BME280;31601;48.042;12.240;2022-07-06T02:03:49;96607.13;;;18.87;64.57
12757;BME280;31601;48.042;12.240;2022-07-06T02:06:16;96611.44;;;18.88;64.51
12757;BME280;31601;48.042;12.240;2022-07-06T02:08:42;96610.69;;;18.81;64.59
12757;BME280;31601;48.042;12.240;2022-07-06T02:11:10;96610.81;;;18.86;64.49
12757;BME280;31601;48.042;12.240;2022-07-06T02:13:38;96614.13;;;18.81;64.35
12757;BME280;31601;48.042;12.240;2022-07-06T02:16:04;96606.38;;;18.79;64.42
12757;BME280;31601;48.042;12.240;2022-07-06T02:18:31;96616.91;;;18.74;64.34
12757;BME280;31601;48.042;12.240;2022-07-06T02:20:57;96620.69;;;18.67;64.65
12757;BME280;31601;48.042;12.240;2022-07-06T02:23:24;96626.09;;;18.60;65.03
12757;BME280;31601;48.042;12.240;2022-07-06T02:25:51;96620.91;;;18.65;64.95
12757;BME280;31601;48.042;12.240;2022-07-06T02:28:17;96621.94;;;18.64;64.89
12757;BME280;31601;48.042;12.240;2022-07-06T02:30:45;96624.91;;;18.56;65.48
12757;BME280;31601;48.042;12.240;2022-07-06T02:33:11;96625.66;;;18.63;65.35
12757;BME280;31601;48.042;12.240;2022-07-06T02:35:38;96627.41;;;18.69;65.22
12757;BME280;31601;48.042;12.240;2022-07-06T02:38:07;96623.25;;;18.73;64.97
12757;BME280;31601;48.042;12.240;2022-07-06T02:40:34;96623.00;;;18.75;65.06
12757;BME280;31601;48.042;12.240;2022-07-06T02:43:00;96627.88;;;18.78;65.05
12757;BME280;31601;48.042;12.240;2022-07-06T02:45:27;96631.94;;;18.81;64.86
12757;BME280;31601;48.042;12.240;2022-07-06T02:47:55;96635.56;;;18.86;64.61
12757;BME280;31601;48.042;12.240;2022-07-06T02:50:22;96631.19;;;18.92;64.51
12757;BME280;31601;48.042;12.240;2022-07-06T02:52:49;96633.84;;;18.92;64.17
12757;BME280;31601;48.042;12.240;2022-07-06T02:55:15;96634.00;;;18.97;64.09
12757;BME280;31601;48.042;12.240;2022-07-06T02:57:42;96637.91;;;18.94;64.06
12757;BME280;31601;48.042;12.240;2022-07-06T03:00:09;96641.25;;;18.90;63.79
12757;BME280;31601;48.042;12.240;2022-07-06T03:02:36;96637.59;;;18.84;63.96
12757;BME280;31601;48.042;12.240;2022-07-06T03:05:05;96629.84;;;18.83;64.22
12757;BME280;31601;48.042;12.240;2022-07-06T03:07:31;96641.94;;;18.67;64.87
12757;BME280;31601;48.042;12.240;2022-07-06T03:09:58;96643.13;;;18.71;64.80
12757;BME280;31601;48.042;12.240;2022-07-06T03:12:24;96647.63;;;18.52;65.46
12757;BME280;31601;48.042;12.240;2022-07-06T03:14:51;96657.25;;;18.53;65.58
12757;BME280;31601;48.042;12.240;2022-07-06T03:17:17;96652.06;;;18.58;65.51
12757;BME280;31601;48.042;12.240;2022-07-06T03:19:44;96642.84;;;18.60;65.67
12757;BME280;31601;48.042;12.240;2022-07-06T03:22:11;96652.28;;;18.56;65.68
12757;BME280;31601;48.042;12.240;2022-07-06T03:24:38;96646.16;;;18.56;65.81
12757;BME280;31601;48.042;12.240;2022-07-06T03:27:04;96649.28;;;18.53;65.75
12757;BME280;31601;48.042;12.240;2022-07-06T03:29:31;96642.19;;;18.47;66.10
12757;BME280;31601;48.042;12.240;2022-07-06T03:31:57;96637.69;;;18.47;66.02
12757;BME280;31601;48.042;12.240;2022-07-06T03:34:24;96643.59;;;18.49;66.05
12757;BME280;31601;48.042;12.240;2022-07-06T03:36:50;96639.84;;;18.57;66.17
12757;BME280;31601;48.042;12.240;2022-07-06T03:39:18;96644.69;;;18.60;66.41
12757;BME280;31601;48.042;12.240;2022-07-06T03:41:44;96647.94;;;18.62;66.26
12757;BME280;31601;48.042;12.240;2022-07-06T03:44:11;96640.97;;;18.61;65.99
12757;BME280;31601;48.042;12.240;2022-07-06T03:46:37;96638.31;;;18.61;65.95
12757;BME280;31601;48.042;12.240;2022-07-06T03:49:03;96642.84;;;18.60;65.76
12757;BME280;31601;48.042;12.240;2022-07-06T03:51:30;96649.41;;;18.58;65.80
12757;BME280;31601;48.042;12.240;2022-07-06T03:53:56;96642.97;;;18.66;65.43
12757;BME280;31601;48.042;12.240;2022-07-06T03:56:24;96637.75;;;18.59;65.82
12757;BME280;31601;48.042;12.240;2022-07-06T03:58:59;96637.16;;;18.57;65.21
12757;BME280;31601;48.042;12.240;2022-07-06T04:01:27;96640.97;;;18.61;65.36
12757;BME280;31601;48.042;12.240;2022-07-06T04:03:53;96639.72;;;18.64;65.20
12757;BME280;31601;48.042;12.240;2022-07-06T04:06:21;96647.25;;;18.67;65.04
12757;BME280;31601;48.042;12.240;2022-07-06T04:08:47;96643.94;;;18.71;64.98
12757;BME280;31601;48.042;12.240;2022-07-06T04:11:14;96648.44;;;18.71;64.97
12757;BME280;31601;48.042;12.240;2022-07-06T04:13:42;96652.97;;;18.82;64.92
12757;BME280;31601;48.042;12.240;2022-07-06T04:16:08;96655.00;;;18.87;64.72
12757;BME280;31601;48.042;12.240;2022-07-06T04:18:35;96652.84;;;18.95;64.54
12757;BME280;31601;48.042;12.240;2022-07-06T04:21:01;96648.22;;;19.03;63.90
12757;BME280;31601;48.042;12.240;2022-07-06T04:23:28;96653.56;;;19.14;63.77
12757;BME280;31601;48.042;12.240;2022-07-06T04:25:55;96653.94;;;19.30;63.47
12757;BME280;31601;48.042;12.240;2022-07-06T04:28:21;96652.47;;;19.34;63.32
12757;BME280;31601;48.042;12.240;2022-07-06T04:30:49;96644.03;;;19.37;62.69
12757;BME280;31601;48.042;12.240;2022-07-06T04:33:15;96646.69;;;19.37;62.58
12757;BME280;31601;48.042;12.240;2022-07-06T04:35:42;96646.22;;;19.40;62.20
12757;BME280;31601;48.042;12.240;2022-07-06T04:38:08;96647.13;;;19.46;62.16
12757;BME280;31601;48.042;12.240;2022-07-06T04:40:35;96652.69;;;19.44;61.94
12757;BME280;31601;48.042;12.240;2022-07-06T04:43:01;96650.25;;;19.31;61.82
12757;BME280;31601;48.042;12.240;2022-07-06T04:45:28;96664.56;;;19.18;63.51
12757;BME280;31601;48.042;12.240;2022-07-06T04:47:55;96659.16;;;19.37;63.10
12757;BME280;31601;48.042;12.240;2022-07-06T04:50:22;96662.41;;;19.50;62.88
12757;BME280;31601;48.042;12.240;2022-07-06T04:52:48;96658.84;;;19.68;62.95
12757;BME280;31601;48.042;12.240;2022-07-06T04:55:15;96659.44;;;19.82;62.85
12757;BME280;31601;48.042;12.240;2022-07-06T04:57:41;96661.88;;;19.84;61.89
12757;BME280;31601;48.042;12.240;2022-07-06T05:00:09;96662.34;;;19.81;62.20
12757;BME280;31601;48.042;12.240;2022-07-06T05:02:36;96660.50;;;20.05;61.79
12757;BME280;31601;48.042;12.240;2022-07-06T05:05:04;96658.16;;;20.20;61.66
12757;BME280;31601;48.042;12.240;2022-07-06T05:07:31;96659.59;;;20.40;60.59
12757;BME280;31601;48.042;12.240;2022-07-06T05:09:59;96663.63;;;20.54;59.90
12757;BME280;31601;48.042;12.240;2022-07-06T05:12:25;96667.88;;;20.55;59.44
12757;BME280;31601;48.042;12.240;2022-07-06T05:14:52;96656.66;;;20.65;59.96
12757;BME280;31601;48.042;12.240;2022-07-06T05:17:18;96657.91;;;20.74;59.16
12757;BME280;31601;48.042;12.240;2022-07-06T05:19:44;96659.47;;;20.87;59.18
12757;BME280;31601;48.042;12.240;2022-07-06T05:22:12;96662.09;;;21.16;58.14
12757;BME280;31601;48.042;12.240;2022-07-06T05:24:39;96662.69;;;21.35;56.82
12757;BME280;31601;48.042;12.240;2022-07-06T05:27:05;96664.31;;;21.53;55.69
12757;BME280;31601;48.042;12.240;2022-07-06T05:29:31;96657.13;;;21.71;56.48
12757;BME280;31601;48.042;12.240;2022-07-06T05:31:58;96657.91;;;21.88;55.25
12757;BME280;31601;48.042;12.240;2022-07-06T05:34:24;96654.19;;;21.89;54.04
12757;BME280;31601;48.042;12.240;2022-07-06T05:36:51;96660.72;;;21.98;53.54
12757;BME280;31601;48.042;12.240;2022-07-06T05:39:19;96658.38;;;22.02;53.07
12757;BME280;31601;48.042;12.240;2022-07-06T05:41:48;96661.25;;;21.78;53.79
12757;BME280;31601;48.042;12.240;2022-07-06T05:44:14;96666.66;;;22.23;53.31
12757;BME280;31601;48.042;12.240;2022-07-06T05:46:41;96656.84;;;22.28;52.69
12757;BME280;31601;48.042;12.240;2022-07-06T05:49:07;96665.06;;;22.44;52.81
12757;BME280;31601;48.042;12.240;2022-07-06T05:51:51;96662.75;;;22.75;52.10
12757;BME280;31601;48.042;12.240;2022-07-06T05:54:19;96674.06;;;22.82;52.20
12757;BME280;31601;48.042;12.240;2022-07-06T05:56:46;96665.88;;;22.94;51.83
12757;BME280;31601;48.042;12.240;2022-07-06T05:59:12;96671.94;;;22.84;51.86
12757;BME280;31601;48.042;12.240;2022-07-06T06:01:38;96680.31;;;23.15;50.82
12757;BME280;31601;48.042;12.240;2022-07-06T06:04:05;96681.50;;;23.29;51.01
12757;BME280;31601;48.042;12.240;2022-07-06T06:06:32;96679.41;;;23.31;50.90
12757;BME280;31601;48.042;12.240;2022-07-06T06:08:58;96679.47;;;23.41;50.76
12757;BME280;31601;48.042;12.240;2022-07-06T06:11:26;96672.56;;;23.46;50.59
12757;BME280;31601;48.042;12.240;2022-07-06T06:13:53;96679.66;;;23.62;50.22
12757;BME280;31601;48.042;12.240;2022-07-06T06:16:19;96680.41;;;23.90;50.16
12757;BME280;31601;48.042;12.240;2022-07-06T06:18:45;96677.16;;;24.30;48.19
12757;BME280;31601;48.042;12.240;2022-07-06T06:21:12;96678.00;;;24.46;47.69
12757;BME280;31601;48.042;12.240;2022-07-06T06:23:38;96683.44;;;24.57;47.34
12757;BME280;31601;48.042;12.240;2022-07-06T06:26:05;96684.56;;;24.71;46.35
12757;BME280;31601;48.042;12.240;2022-07-06T06:28:32;96680.63;;;24.89;45.66
12757;BME280;31601;48.042;12.240;2022-07-06T06:30:59;96686.53;;;24.96;45.17
12757;BME280;31601;48.042;12.240;2022-07-06T06:33:25;96686.84;;;25.10;45.11
12757;BME280;31601;48.042;12.240;2022-07-06T06:35:52;96681.75;;;25.24;44.95
12757;BME280;31601;48.042;12.240;2022-07-06T06:38:20;96682.88;;;25.33;43.53
12757;BME280;31601;48.042;12.240;2022-07-06T06:40:47;96682.34;;;25.42;43.83
12757;BME280;31601;48.042;12.240;2022-07-06T06:43:14;96684.41;;;25.19;44.42
12757;BME280;31601;48.042;12.240;2022-07-06T06:45:42;96675.88;;;25.37;44.75
12757;BME280;31601;48.042;12.240;2022-07-06T06:48:09;96671.56;;;25.21;45.54
12757;BME280;31601;48.042;12.240;2022-07-06T06:50:36;96680.94;;;25.18;46.04
12757;BME280;31601;48.042;12.240;2022-07-06T06:53:02;96677.97;;;25.25;45.47
12757;BME280;31601;48.042;12.240;2022-07-06T06:55:29;96680.66;;;25.05;46.17
12757;BME280;31601;48.042;12.240;2022-07-06T06:57:56;96672.56;;;24.89;46.76
12757;BME280;31601;48.042;12.240;2022-07-06T07:00:22;96680.34;;;24.91;46.90
12757;BME280;31601;48.042;12.240;2022-07-06T07:02:50;96679.25;;;24.87;47.72
12757;BME280;31601;48.042;12.240;2022-07-06T07:05:17;96678.75;;;25.05;47.20
12757;BME280;31601;48.042;12.240;2022-07-06T07:07:43;96682.47;;;24.73;48.11
12757;BME280;31601;48.042;12.240;2022-07-06T07:10:10;96685.56;;;24.55;48.56
12757;BME280;31601;48.042;12.240;2022-07-06T07:12:42;96684.09;;;24.90;47.58
12757;BME280;31601;48.042;12.240;2022-07-06T07:15:09;96677.94;;;24.94;46.20
12757;BME280;31601;48.042;12.240;2022-07-06T07:17:35;96679.72;;;24.58;48.03
12757;BME280;31601;48.042;12.240;2022-07-06T07:20:04;96678.16;;;24.77;48.21
12757;BME280;31601;48.042;12.240;2022-07-06T07:22:30;96679.31;;;25.12;47.83
12757;BME280;31601;48.042;12.240;2022-07-06T07:24:57;96673.13;;;25.07;45.95
12757;BME280;31601;48.042;12.240;2022-07-06T07:27:24;96676.16;;;25.41;46.10
12757;BME280;31601;48.042;12.240;2022-07-06T07:29:50;96681.09;;;24.76;47.36
12757;BME280;31601;48.042;12.240;2022-07-06T07:32:16;96679.78;;;24.20;47.54
12757;BME280;31601;48.042;12.240;2022-07-06T07:34:43;96674.38;;;24.10;47.88
12757;BME280;31601;48.042;12.240;2022-07-06T07:37:11;96679.78;;;24.83;46.99
12757;BME280;31601;48.042;12.240;2022-07-06T07:39:38;96674.75;;;25.13;48.09
12757;BME280;31601;48.042;12.240;2022-07-06T07:42:04;96673.47;;;25.57;47.23
12757;BME280;31601;48.042;12.240;2022-07-06T07:44:31;96673.94;;;25.07;45.10
12757;BME280;31601;48.042;12.240;2022-07-06T07:46:57;96672.63;;;26.07;44.47
12757;BME280;31601;48.042;12.240;2022-07-06T07:49:23;96674.25;;;26.03;42.40
12757;BME280;31601;48.042;12.240;2022-07-06T07:51:50;96668.84;;;26.84;43.49
12757;BME280;31601;48.042;12.240;2022-07-06T07:54:18;96668.88;;;26.79;43.03
12757;BME280;31601;48.042;12.240;2022-07-06T07:56:44;96668.56;;;26.86;43.48
12757;BME280;31601;48.042;12.240;2022-07-06T07:59:11;96673.53;;;27.08;40.29
12757;BME280;31601;48.042;12.240;2022-07-06T08:01:37;96672.25;;;27.45;42.10
12757;BME280;31601;48.042;12.240;2022-07-06T08:04:04;96665.13;;;26.75;41.65
12757;BME280;31601;48.042;12.240;2022-07-06T08:06:30;96670.69;;;26.34;43.94
12757;BME280;31601;48.042;12.240;2022-07-06T08:08:57;96672.91;;;25.90;41.74
12757;BME280;31601;48.042;12.240;2022-07-06T08:11:25;96675.31;;;26.07;45.13
12757;BME280;31601;48.042;12.240;2022-07-06T08:13:51;96674.53;;;25.81;44.25
12757;BME280;31601;48.042;12.240;2022-07-06T08:16:18;96670.50;;;25.37;42.54
12757;BME280;31601;48.042;12.240;2022-07-06T08:18:44;96672.63;;;25.20;42.59
12757;BME280;31601;48.042;12.240;2022-07-06T08:21:11;96676.16;;;25.31;44.23
12757;BME280;31601;48.042;12.240;2022-07-06T08:23:37;96673.66;;;24.98;46.29
12757;BME280;31601;48.042;12.240;2022-07-06T08:26:03;96671.41;;;24.64;45.05
12757;BME280;31601;48.042;12.240;2022-07-06T08:28:31;96676.16;;;25.46;45.17
12757;BME280;31601;48.042;12.240;2022-07-06T08:30:58;96680.44;;;25.68;44.66
12757;BME280;31601;48.042;12.240;2022-07-06T08:33:24;96686.91;;;25.62;42.31
12757;BME280;31601;48.042;12.240;2022-07-06T08:35:51;96673.38;;;26.29;42.09
12757;BME280;31601;48.042;12.240;2022-07-06T08:38:17;96673.44;;;25.82;41.59
12757;BME280;31601;48.042;12.240;2022-07-06T08:40:47;96682.56;;;25.91;41.44
12757;BME280;31601;48.042;12.240;2022-07-06T08:43:14;96673.38;;;26.29;43.81
12757;BME280;31601;48.042;12.240;2022-07-06T08:45:42;96678.66;;;26.54;41.91
12757;BME280;31601;48.042;12.240;2022-07-06T08:48:11;96668.84;;;26.84;42.10
12757;BME280;31601;48.042;12.240;2022-07-06T08:50:38;96679.66;;;27.19;41.56
12757;BME280;31601;48.042;12.240;2022-07-06T08:53:05;96681.25;;;27.25;40.16
12757;BME280;31601;48.042;12.240;2022-07-06T08:55:32;96681.88;;;27.51;42.17
12757;BME280;31601;48.042;12.240;2022-07-06T08:57:59;96681.47;;;26.89;42.49
12757;BME280;31601;48.042;12.240;2022-07-06T09:00:25;96688.88;;;26.57;43.31
12757;BME280;31601;48.042;12.240;2022-07-06T09:02:53;96688.47;;;26.14;43.58
12757;BME280;31601;48.042;12.240;2022-07-06T09:05:22;96683.63;;;26.21;43.24
12757;BME280;31601;48.042;12.240;2022-07-06T09:07:50;96690.91;;;25.85;42.64
12757;BME280;31601;48.042;12.240;2022-07-06T09:10:18;96687.41;;;25.79;43.67
12757;BME280;31601;48.042;12.240;2022-07-06T09:12:44;96688.50;;;25.73;45.24
12757;BME280;31601;48.042;12.240;2022-07-06T09:15:11;96695.75;;;25.78;44.31
12757;BME280;31601;48.042;12.240;2022-07-06T09:17:38;96684.69;;;26.31;42.52
12757;BME280;31601;48.042;12.240;2022-07-06T09:20:08;96684.81;;;26.65;41.97
12757;BME280;31601;48.042;12.240;2022-07-06T09:22:35;96687.28;;;27.51;42.03
12757;BME280;31601;48.042;12.240;2022-07-06T09:25:04;96685.06;;;26.69;43.25
12757;BME280;31601;48.042;12.240;2022-07-06T09:27:31;96682.00;;;26.20;42.66
12757;BME280;31601;48.042;12.240;2022-07-06T09:30:03;96690.06;;;26.20;42.68
12757;BME280;31601;48.042;12.240;2022-07-06T09:32:30;96686.97;;;26.58;42.20
12757;BME280;31601;48.042;12.240;2022-07-06T09:34:57;96690.03;;;27.46;41.55
12757;BME280;31601;48.042;12.240;2022-07-06T09:37:29;96690.31;;;27.00;39.99
12757;BME280;31601;48.042;12.240;2022-07-06T09:39:55;96687.13;;;27.72;39.15
12757;BME280;31601;48.042;12.240;2022-07-06T09:42:24;96679.50;;;28.08;39.10
12757;BME280;31601;48.042;12.240;2022-07-06T09:44:51;96681.88;;;27.56;37.55
12757;BME280;31601;48.042;12.240;2022-07-06T09:47:18;96688.13;;;27.07;41.44
12757;BME280;31601;48.042;12.240;2022-07-06T09:49:46;96693.78;;;26.35;40.29
12757;BME280;31601;48.042;12.240;2022-07-06T09:52:14;96690.66;;;25.81;38.83
12757;BME280;31601;48.042;12.240;2022-07-06T09:54:41;96691.75;;;25.44;40.30
12757;BME280;31601;48.042;12.240;2022-07-06T09:57:08;96690.66;;;26.02;41.08
12757;BME280;31601;48.042;12.240;2022-07-06T09:59:35;96685.47;;;26.31;36.76
12757;BME280;31601;48.042;12.240;2022-07-06T10:02:04;96683.56;;;26.32;37.66
12757;BME280;31601;48.042;12.240;2022-07-06T10:04:31;96685.66;;;26.50;36.51
12757;BME280;31601;48.042;12.240;2022-07-06T10:06:59;96683.94;;;26.80;36.69
12757;BME280;31601;48.042;12.240;2022-07-06T10:09:27;96683.63;;;26.21;36.22
12757;BME280;31601;48.042;12.240;2022-07-06T10:11:56;96691.69;;;25.24;40.81
12757;BME280;31601;48.042;12.240;2022-07-06T10:14:25;96688.97;;;25.03;40.50
12757;BME280;31601;48.042;12.240;2022-07-06T10:16:55;96681.66;;;24.88;38.81
12757;BME280;31601;48.042;12.240;2022-07-06T10:19:22;96678.50;;;25.07;38.46
12757;BME280;31601;48.042;12.240;2022-07-06T10:21:49;96679.94;;;25.50;39.14
12757;BME280;31601;48.042;12.240;2022-07-06T10:24:17;96678.56;;;26.04;37.71
12757;BME280;31601;48.042;12.240;2022-07-06T10:26:45;96673.38;;;26.29;38.34
12757;BME280;31601;48.042;12.240;2022-07-06T10:29:14;96679.19;;;26.67;34.62
12757;BME280;31601;48.042;12.240;2022-07-06T10:31:43;96692.19;;;26.34;38.75
12757;BME280;31601;48.042;12.240;2022-07-06T10:34:12;96690.59;;;26.22;38.94
12757;BME280;31601;48.042;12.240;2022-07-06T10:36:40;96689.47;;;26.39;36.30
12757;BME280;31601;48.042;12.240;2022-07-06T10:39:08;96682.03;;;26.15;36.27
12757;BME280;31601;48.042;12.240;2022-07-06T10:41:52;96672.06;;;26.91;36.52
12757;BME280;31601;48.042;12.240;2022-07-06T10:44:21;96672.03;;;27.31;38.25
12757;BME280;31601;48.042;12.240;2022-07-06T10:46:53;96671.53;;;27.29;35.54
12757;BME280;31601;48.042;12.240;2022-07-06T10:49:20;96672.16;;;27.55;37.38
12757;BME280;31601;48.042;12.240;2022-07-06T10:51:47;96673.69;;;26.87;36.67
12757;BME280;31601;48.042;12.240;2022-07-06T10:54:16;96673.50;;;26.63;37.28
12757;BME280;31601;48.042;12.240;2022-07-06T10:56:44;96670.19;;;26.16;37.40
12757;BME280;31601;48.042;12.240;2022-07-06T10:59:12;96660.16;;;26.97;34.70
12757;BME280;31601;48.042;12.240;2022-07-06T11:01:40;96670.56;;;26.59;36.67
12757;BME280;31601;48.042;12.240;2022-07-06T11:04:09;96665.91;;;26.80;34.24
12757;BME280;31601;48.042;12.240;2022-07-06T11:06:37;96670.72;;;26.89;38.38
12757;BME280;31601;48.042;12.240;2022-07-06T11:09:05;96660.06;;;26.68;36.82
12757;BME280;31601;48.042;12.240;2022-07-06T11:11:40;96670.28;;;27.16;35.55
12757;BME280;31601;48.042;12.240;2022-07-06T11:14:08;96679.50;;;27.05;34.86
12757;BME280;31601;48.042;12.240;2022-07-06T11:16:37;96665.09;;;26.80;35.49
12757;BME280;31601;48.042;12.240;2022-07-06T11:19:07;96668.06;;;26.84;36.32
12757;BME280;31601;48.042;12.240;2022-07-06T11:21:44;96670.03;;;26.57;34.47
12757;BME280;31601;48.042;12.240;2022-07-06T11:24:13;96667.84;;;26.70;33.43
12757;BME280;31601;48.042;12.240;2022-07-06T11:26:41;96675.84;;;27.30;35.81
12757;BME280;31601;48.042;12.240;2022-07-06T11:29:09;96664.09;;;26.55;33.23
12757;BME280;31601;48.042;12.240;2022-07-06T11:31:38;96672.31;;;26.24;35.87
12757;BME280;31601;48.042;12.240;2022-07-06T11:34:07;96671.06;;;26.72;35.12
12757;BME280;31601;48.042;12.240;2022-07-06T11:36:35;96670.09;;;26.37;34.53
12757;BME280;31601;48.042;12.240;2022-07-06T11:39:01;96665.22;;;26.49;38.42
12757;BME280;31601;48.042;12.240;2022-07-06T11:41:28;96668.81;;;26.29;35.77
12757;BME280;31601;48.042;12.240;2022-07-06T11:43:54;96663.81;;;26.62;35.30
12757;BME280;31601;48.042;12.240;2022-07-06T11:46:23;96674.09;;;27.05;36.18
12757;BME280;31601;48.042;12.240;2022-07-06T11:48:51;96665.16;;;26.65;37.11
12757;BME280;31601;48.042;12.240;2022-07-06T11:51:20;96661.16;;;27.12;34.47
12757;BME280;31601;48.042;12.240;2022-07-06T11:53:48;96659.25;;;27.81;34.86
12757;BME280;31601;48.042;12.240;2022-07-06T11:56:15;96650.13;;;27.48;34.47
12757;BME280;31601;48.042;12.240;2022-07-06T11:58:44;96652.47;;;27.20;38.54
12757;BME280;31601;48.042;12.240;2022-07-06T12:01:12;96652.66;;;27.29;37.18
12757;BME280;31601;48.042;12.240;2022-07-06T12:03:39;96651.06;;;27.28;34.21
12757;BME280;31601;48.042;12.240;2022-07-06T12:06:10;96651.09;;;26.83;36.48
12757;BME280;31601;48.042;12.240;2022-07-06T12:08:43;96643.03;;;26.78;33.12
12757;BME280;31601;48.042;12.240;2022-07-06T12:11:10;96648.81;;;26.45;36.31
12757;BME280;31601;48.042;12.240;2022-07-06T12:13:37;96643.34;;;25.90;36.25
12757;BME280;31601;48.042;12.240;2022-07-06T12:16:10;96643.06;;;26.02;34.67
12757;BME280;31601;48.042;12.240;2022-07-06T12:18:38;96636.59;;;25.93;35.90
12757;BME280;31601;48.042;12.240;2022-07-06T12:21:07;96631.44;;;26.22;35.96
12757;BME280;31601;48.042;12.240;2022-07-06T12:23:46;96624.72;;;26.80;36.10
12757;BME280;31601;48.042;12.240;2022-07-06T12:26:14;96624.72;;;26.80;34.47
12757;BME280;31601;48.042;12.240;2022-07-06T12:28:41;96619.34;;;26.80;32.10
12757;BME280;31601;48.042;12.240;2022-07-06T12:31:08;96617.84;;;27.03;32.46
12757;BME280;31601;48.042;12.240;2022-07-06T12:33:34;96616.66;;;26.80;33.90
12757;BME280;31601;48.042;12.240;2022-07-06T12:36:12;96613.72;;;26.11;34.00
12757;BME280;31601;48.042;12.240;2022-07-06T12:38:46;96622.50;;;26.37;35.48
12757;BME280;31601;48.042;12.240;2022-07-06T12:41:27;96619.34;;;26.20;34.79
12757;BME280;31601;48.042;12.240;2022-07-06T12:44:01;96623.38;;;26.27;35.50
12757;BME280;31601;48.042;12.240;2022-07-06T12:46:29;96621.59;;;25.66;35.88
12757;BME280;31601;48.042;12.240;2022-07-06T12:49:02;96618.63;;;25.83;35.01
12757;BME280;31601;48.042;12.240;2022-07-06T12:51:29;96614.19;;;26.29;34.55